Estancia La Primavera, Argentina
Current Conditions -  °F | °C
As of 3:00 PM on Saturday 20 Dec 2014 (Local Time) from SAZN Reporting Station
Clear Clear  
Wind Chill: 66°   Ceiling: Unl
Heat Index: 66°   Visibility: 6mi
Dew Point: 14°   Wind: 15mph
Humidity: 13%   Direction: 230°SW
Pressure: 29.8"   Gusts: NA
Location:  38.48°S, 67.46°W
Report Text: SAZN 201800Z 23013KT CAVOK 19/M10 Q1009
Loading
Personal Weather Stations






























Interactive Weather Map New forecast layout! Learn more

10-Day Weather Forecast

Advertisements
Track Severe Weather on mobile